sensor_id;sensor_type;location;lat;lon;timestamp;temperature;humidity
48007;DHT22;33771;48.180;11.400;2023-07-22T00:00:09;14.50;99.90
48007;DHT22;33771;48.180;11.400;2023-07-22T00:02:39;14.40;99.90
48007;DHT22;33771;48.180;11.400;2023-07-22T00:05:05;14.40;99.90
48007;DHT22;33771;48.180;11.400;2023-07-22T00:07:30;14.30;99.90
48007;DHT22;33771;48.180;11.400;2023-07-22T00:09:56;14.40;99.90
48007;DHT22;33771;48.180;11.400;2023-07-22T00:12:21;14.30;99.90
48007;DHT22;33771;48.180;11.400;2023-07-22T00:14:51;14.30;99.90
48007;DHT22;33771;48.180;11.400;2023-07-22T00:17:16;14.30;99.90
48007;DHT22;33771;48.180;11.400;2023-07-22T00:19:42;14.30;99.90
48007;DHT22;33771;48.180;11.400;2023-07-22T00:22:08;14.30;99.90
48007;DHT22;33771;48.180;11.400;2023-07-22T00:24:33;14.30;99.90
48007;DHT22;33771;48.180;11.400;2023-07-22T00:27:00;14.20;99.90
48007;DHT22;33771;48.180;11.400;2023-07-22T00:29:25;14.20;99.90
48007;DHT22;33771;48.180;11.400;2023-07-22T00:31:51;14.20;99.90
48007;DHT22;33771;48.180;11.400;2023-07-22T00:34:16;14.20;99.90
48007;DHT22;33771;48.180;11.400;2023-07-22T00:36:42;14.20;99.90
48007;DHT22;33771;48.180;11.400;2023-07-22T00:39:09;14.10;99.90
48007;DHT22;33771;48.180;11.400;2023-07-22T00:41:34;14.10;99.90
48007;DHT22;33771;48.180;11.400;2023-07-22T00:44:00;14.10;99.90
48007;DHT22;33771;48.180;11.400;2023-07-22T00:46:25;14.10;99.90
48007;DHT22;33771;48.180;11.400;2023-07-22T00:48:52;14.00;99.90
48007;DHT22;33771;48.180;11.400;2023-07-22T00:51:20;14.00;99.90
48007;DHT22;33771;48.180;11.400;2023-07-22T00:53:47;14.00;99.90
48007;DHT22;33771;48.180;11.400;2023-07-22T00:56:13;14.00;99.90
48007;DHT22;33771;48.180;11.400;2023-07-22T00:58:39;13.90;99.90
48007;DHT22;33771;48.180;11.400;2023-07-22T01:01:04;13.90;99.90
48007;DHT22;33771;48.180;11.400;2023-07-22T01:03:30;13.90;99.90
48007;DHT22;33771;48.180;11.400;2023-07-22T01:05:56;13.90;99.90
48007;DHT22;33771;48.180;11.400;2023-07-22T01:08:24;13.90;99.90
48007;DHT22;33771;48.180;11.400;2023-07-22T01:10:49;13.90;99.90
48007;DHT22;33771;48.180;11.400;2023-07-22T01:13:15;13.90;99.90
48007;DHT22;33771;48.180;11.400;2023-07-22T01:15:41;13.80;99.90
48007;DHT22;33771;48.180;11.400;2023-07-22T01:18:07;13.80;99.90
48007;DHT22;33771;48.180;11.400;2023-07-22T01:20:33;13.80;99.90
48007;DHT22;33771;48.180;11.400;2023-07-22T01:22:59;13.80;99.90
48007;DHT22;33771;48.180;11.400;2023-07-22T01:25:25;13.80;99.90
48007;DHT22;33771;48.180;11.400;2023-07-22T01:27:51;13.70;99.90
48007;DHT22;33771;48.180;11.400;2023-07-22T01:30:17;13.80;99.90
48007;DHT22;33771;48.180;11.400;2023-07-22T01:32:44;13.80;99.90
48007;DHT22;33771;48.180;11.400;2023-07-22T01:35:10;13.70;99.90
48007;DHT22;33771;48.180;11.400;2023-07-22T01:37:36;13.70;99.90
48007;DHT22;33771;48.180;11.400;2023-07-22T01:40:02;13.70;99.90
48007;DHT22;33771;48.180;11.400;2023-07-22T01:42:40;13.70;99.90
48007;DHT22;33771;48.180;11.400;2023-07-22T01:45:07;13.60;99.90
48007;DHT22;33771;48.180;11.400;2023-07-22T01:47:34;13.60;99.90
48007;DHT22;33771;48.180;11.400;2023-07-22T01:50:01;13.60;99.90
48007;DHT22;33771;48.180;11.400;2023-07-22T01:52:27;13.50;99.90
48007;DHT22;33771;48.180;11.400;2023-07-22T01:54:52;13.50;99.90
48007;DHT22;33771;48.180;11.400;2023-07-22T01:57:18;13.50;99.90
48007;DHT22;33771;48.180;11.400;2023-07-22T01:59:43;13.60;99.90
48007;DHT22;33771;48.180;11.400;2023-07-22T02:02:09;13.60;99.90
48007;DHT22;33771;48.180;11.400;2023-07-22T02:04:34;13.50;99.90
48007;DHT22;33771;48.180;11.400;2023-07-22T02:07:00;13.50;99.90
48007;DHT22;33771;48.180;11.400;2023-07-22T02:09:25;13.60;99.90
48007;DHT22;33771;48.180;11.400;2023-07-22T02:11:51;13.60;99.90
48007;DHT22;33771;48.180;11.400;2023-07-22T02:14:16;13.50;99.90
48007;DHT22;33771;48.180;11.400;2023-07-22T02:16:42;13.50;99.90
48007;DHT22;33771;48.180;11.400;2023-07-22T02:19:07;13.50;99.90
48007;DHT22;33771;48.180;11.400;2023-07-22T02:21:33;13.60;99.90
48007;DHT22;33771;48.180;11.400;2023-07-22T02:23:58;13.50;99.90
48007;DHT22;33771;48.180;11.400;2023-07-22T02:26:24;13.60;99.90
48007;DHT22;33771;48.180;11.400;2023-07-22T02:28:49;13.60;99.90
48007;DHT22;33771;48.180;11.400;2023-07-22T02:31:15;13.60;99.90
48007;DHT22;33771;48.180;11.400;2023-07-22T02:33:40;13.60;99.90
48007;DHT22;33771;48.180;11.400;2023-07-22T02:36:06;13.60;99.90
48007;DHT22;33771;48.180;11.400;2023-07-22T02:38:31;13.70;99.90
48007;DHT22;33771;48.180;11.400;2023-07-22T02:41:05;13.70;99.90
48007;DHT22;33771;48.180;11.400;2023-07-22T02:43:33;13.70;99.90
48007;DHT22;33771;48.180;11.400;2023-07-22T02:46:03;13.70;99.90
48007;DHT22;33771;48.180;11.400;2023-07-22T02:48:30;13.70;99.90
48007;DHT22;33771;48.180;11.400;2023-07-22T02:51:06;13.70;99.90
48007;DHT22;33771;48.180;11.400;2023-07-22T02:53:33;13.70;99.90
48007;DHT22;33771;48.180;11.400;2023-07-22T02:55:59;13.70;99.90
48007;DHT22;33771;48.180;11.400;2023-07-22T02:58:25;13.60;99.90
48007;DHT22;33771;48.180;11.400;2023-07-22T03:00:50;13.60;99.90
48007;DHT22;33771;48.180;11.400;2023-07-22T03:03:16;13.60;99.90
48007;DHT22;33771;48.180;11.400;2023-07-22T03:05:41;13.60;99.90
48007;DHT22;33771;48.180;11.400;2023-07-22T03:08:07;13.60;99.90
48007;DHT22;33771;48.180;11.400;2023-07-22T03:10:33;13.60;99.90
48007;DHT22;33771;48.180;11.400;2023-07-22T03:12:58;13.60;99.90
48007;DHT22;33771;48.180;11.400;2023-07-22T03:15:25;13.60;99.90
48007;DHT22;33771;48.180;11.400;2023-07-22T03:17:51;13.60;99.90
48007;DHT22;33771;48.180;11.400;2023-07-22T03:20:17;13.60;99.90
48007;DHT22;33771;48.180;11.400;2023-07-22T03:22:44;13.50;99.90
48007;DHT22;33771;48.180;11.400;2023-07-22T03:25:11;13.50;99.90
48007;DHT22;33771;48.180;11.400;2023-07-22T03:27:37;13.50;99.90
48007;DHT22;33771;48.180;11.400;2023-07-22T03:30:04;13.50;99.90
48007;DHT22;33771;48.180;11.400;2023-07-22T03:32:34;13.50;99.90
48007;DHT22;33771;48.180;11.400;2023-07-22T03:35:00;13.50;99.90
48007;DHT22;33771;48.180;11.400;2023-07-22T03:37:27;13.50;99.90
48007;DHT22;33771;48.180;11.400;2023-07-22T03:39:53;13.50;99.90
48007;DHT22;33771;48.180;11.400;2023-07-22T03:42:18;13.50;99.90
48007;DHT22;33771;48.180;11.400;2023-07-22T03:44:44;13.40;99.90
48007;DHT22;33771;48.180;11.400;2023-07-22T03:47:09;13.40;99.90
48007;DHT22;33771;48.180;11.400;2023-07-22T03:49:35;13.30;99.90
48007;DHT22;33771;48.180;11.400;2023-07-22T03:52:00;13.30;99.90
48007;DHT22;33771;48.180;11.400;2023-07-22T03:54:26;13.30;99.90
48007;DHT22;33771;48.180;11.400;2023-07-22T03:56:51;13.30;99.90
48007;DHT22;33771;48.180;11.400;2023-07-22T03:59:17;13.30;99.90
48007;DHT22;33771;48.180;11.400;2023-07-22T04:01:42;13.30;99.90
48007;DHT22;33771;48.180;11.400;2023-07-22T04:04:10;13.30;99.90
48007;DHT22;33771;48.180;11.400;2023-07-22T04:06:36;13.30;99.90
48007;DHT22;33771;48.180;11.400;2023-07-22T04:09:01;13.40;99.90
48007;DHT22;33771;48.180;11.400;2023-07-22T04:11:27;13.40;99.90
48007;DHT22;33771;48.180;11.400;2023-07-22T04:13:53;13.50;99.90
48007;DHT22;33771;48.180;11.400;2023-07-22T04:16:18;13.50;99.90
48007;DHT22;33771;48.180;11.400;2023-07-22T04:18:44;13.50;99.90
48007;DHT22;33771;48.180;11.400;2023-07-22T04:21:09;13.50;99.90
48007;DHT22;33771;48.180;11.400;2023-07-22T04:23:35;13.60;99.90
48007;DHT22;33771;48.180;11.400;2023-07-22T04:26:02;13.60;99.90
48007;DHT22;33771;48.180;11.400;2023-07-22T04:28:30;13.70;99.90
48007;DHT22;33771;48.180;11.400;2023-07-22T04:30:57;13.70;99.90
48007;DHT22;33771;48.180;11.400;2023-07-22T04:33:24;13.80;99.90
48007;DHT22;33771;48.180;11.400;2023-07-22T04:35:52;13.80;99.90
48007;DHT22;33771;48.180;11.400;2023-07-22T04:38:18;13.90;99.90
48007;DHT22;33771;48.180;11.400;2023-07-22T04:40:44;14.00;99.90
48007;DHT22;33771;48.180;11.400;2023-07-22T04:43:09;14.00;99.90
48007;DHT22;33771;48.180;11.400;2023-07-22T04:45:35;14.10;99.90
48007;DHT22;33771;48.180;11.400;2023-07-22T04:48:01;14.20;99.90
48007;DHT22;33771;48.180;11.400;2023-07-22T04:50:27;14.30;99.90
48007;DHT22;33771;48.180;11.400;2023-07-22T04:52:54;14.50;99.90
48007;DHT22;33771;48.180;11.400;2023-07-22T04:55:20;14.50;99.90
48007;DHT22;33771;48.180;11.400;2023-07-22T04:57:46;14.60;99.90
48007;DHT22;33771;48.180;11.400;2023-07-22T05:00:13;14.70;99.90
48007;DHT22;33771;48.180;11.400;2023-07-22T05:02:39;14.70;99.90
48007;DHT22;33771;48.180;11.400;2023-07-22T05:05:05;14.80;99.90
48007;DHT22;33771;48.180;11.400;2023-07-22T05:07:30;14.80;99.90
48007;DHT22;33771;48.180;11.400;2023-07-22T05:09:56;14.90;99.90
48007;DHT22;33771;48.180;11.400;2023-07-22T05:12:22;14.90;99.90
48007;DHT22;33771;48.180;11.400;2023-07-22T05:14:48;15.00;99.90
48007;DHT22;33771;48.180;11.400;2023-07-22T05:17:14;15.10;99.90
48007;DHT22;33771;48.180;11.400;2023-07-22T05:19:39;15.10;99.90
48007;DHT22;33771;48.180;11.400;2023-07-22T05:22:05;15.20;99.90
48007;DHT22;33771;48.180;11.400;2023-07-22T05:24:31;15.30;99.90
48007;DHT22;33771;48.180;11.400;2023-07-22T05:26:56;15.30;99.90
48007;DHT22;33771;48.180;11.400;2023-07-22T05:29:22;15.30;99.90
48007;DHT22;33771;48.180;11.400;2023-07-22T05:31:47;15.40;99.90
48007;DHT22;33771;48.180;11.400;2023-07-22T05:34:13;15.40;99.90
48007;DHT22;33771;48.180;11.400;2023-07-22T05:36:39;15.50;99.90
48007;DHT22;33771;48.180;11.400;2023-07-22T05:39:04;15.50;99.90
48007;DHT22;33771;48.180;11.400;2023-07-22T05:41:31;15.60;99.90
48007;DHT22;33771;48.180;11.400;2023-07-22T05:43:57;15.60;99.90
48007;DHT22;33771;48.180;11.400;2023-07-22T05:46:23;15.60;99.90
48007;DHT22;33771;48.180;11.400;2023-07-22T05:48:48;15.70;99.90
48007;DHT22;33771;48.180;11.400;2023-07-22T05:51:14;15.70;99.90
48007;DHT22;33771;48.180;11.400;2023-07-22T05:53:40;15.70;99.90
48007;DHT22;33771;48.180;11.400;2023-07-22T05:56:06;15.80;99.90
48007;DHT22;33771;48.180;11.400;2023-07-22T05:58:31;15.80;99.90
48007;DHT22;33771;48.180;11.400;2023-07-22T06:00:57;15.90;99.90
48007;DHT22;33771;48.180;11.400;2023-07-22T06:03:22;16.00;99.90
48007;DHT22;33771;48.180;11.400;2023-07-22T06:05:48;15.90;99.90
48007;DHT22;33771;48.180;11.400;2023-07-22T06:08:13;16.00;99.90
48007;DHT22;33771;48.180;11.400;2023-07-22T06:10:42;16.00;99.90
48007;DHT22;33771;48.180;11.400;2023-07-22T06:13:08;16.10;99.90
48007;DHT22;33771;48.180;11.400;2023-07-22T06:15:33;16.20;99.90
48007;DHT22;33771;48.180;11.400;2023-07-22T06:18:00;16.30;99.90
48007;DHT22;33771;48.180;11.400;2023-07-22T06:20:26;16.40;99.90
48007;DHT22;33771;48.180;11.400;2023-07-22T06:22:51;16.50;99.90
48007;DHT22;33771;48.180;11.400;2023-07-22T06:25:17;16.50;99.90
48007;DHT22;33771;48.180;11.400;2023-07-22T06:27:43;16.70;99.90
48007;DHT22;33771;48.180;11.400;2023-07-22T06:30:09;16.80;99.90
48007;DHT22;33771;48.180;11.400;2023-07-22T06:32:37;17.00;99.90
48007;DHT22;33771;48.180;11.400;2023-07-22T06:35:03;17.10;99.90
48007;DHT22;33771;48.180;11.400;2023-07-22T06:37:29;17.20;99.90
48007;DHT22;33771;48.180;11.400;2023-07-22T06:39:54;17.30;99.90
48007;DHT22;33771;48.180;11.400;2023-07-22T06:42:20;17.30;99.90
48007;DHT22;33771;48.180;11.400;2023-07-22T06:44:45;17.40;99.90
48007;DHT22;33771;48.180;11.400;2023-07-22T06:47:11;17.40;99.90
48007;DHT22;33771;48.180;11.400;2023-07-22T06:49:37;17.50;99.90
48007;DHT22;33771;48.180;11.400;2023-07-22T06:52:02;17.60;99.90
48007;DHT22;33771;48.180;11.400;2023-07-22T06:54:28;17.70;99.90
48007;DHT22;33771;48.180;11.400;2023-07-22T06:56:54;17.80;99.90
48007;DHT22;33771;48.180;11.400;2023-07-22T06:59:19;17.80;99.90
48007;DHT22;33771;48.180;11.400;2023-07-22T07:01:45;17.80;99.90
48007;DHT22;33771;48.180;11.400;2023-07-22T07:04:10;17.80;99.90
48007;DHT22;33771;48.180;11.400;2023-07-22T07:06:36;17.80;99.90
48007;DHT22;33771;48.180;11.400;2023-07-22T07:09:03;17.80;99.90
48007;DHT22;33771;48.180;11.400;2023-07-22T07:11:29;18.00;99.90
48007;DHT22;33771;48.180;11.400;2023-07-22T07:13:55;18.10;99.90
48007;DHT22;33771;48.180;11.400;2023-07-22T07:16:22;18.10;99.90
48007;DHT22;33771;48.180;11.400;2023-07-22T07:18:49;18.30;99.90
48007;DHT22;33771;48.180;11.400;2023-07-22T07:21:14;18.40;99.90
48007;DHT22;33771;48.180;11.400;2023-07-22T07:23:40;18.50;99.90
48007;DHT22;33771;48.180;11.400;2023-07-22T07:26:05;18.50;99.90
48007;DHT22;33771;48.180;11.400;2023-07-22T07:28:31;18.50;99.90
48007;DHT22;33771;48.180;11.400;2023-07-22T07:30:56;18.50;99.90
48007;DHT22;33771;48.180;11.400;2023-07-22T07:33:22;18.50;99.90
48007;DHT22;33771;48.180;11.400;2023-07-22T07:35:47;18.50;99.90
48007;DHT22;33771;48.180;11.400;2023-07-22T07:38:13;18.60;99.90
48007;DHT22;33771;48.180;11.400;2023-07-22T07:40:38;18.70;99.90
48007;DHT22;33771;48.180;11.400;2023-07-22T07:43:04;18.80;99.90
48007;DHT22;33771;48.180;11.400;2023-07-22T07:45:30;18.90;99.90
48007;DHT22;33771;48.180;11.400;2023-07-22T07:47:55;18.90;99.90
48007;DHT22;33771;48.180;11.400;2023-07-22T07:50:21;18.90;99.90
48007;DHT22;33771;48.180;11.400;2023-07-22T07:52:46;18.90;99.90
48007;DHT22;33771;48.180;11.400;2023-07-22T07:55:12;18.90;99.90
48007;DHT22;33771;48.180;11.400;2023-07-22T07:57:38;19.00;99.90
48007;DHT22;33771;48.180;11.400;2023-07-22T08:00:04;19.00;99.90
48007;DHT22;33771;48.180;11.400;2023-07-22T08:02:29;19.00;99.90
48007;DHT22;33771;48.180;11.400;2023-07-22T08:04:55;19.10;99.90
48007;DHT22;33771;48.180;11.400;2023-07-22T08:07:20;19.10;99.90
48007;DHT22;33771;48.180;11.400;2023-07-22T08:09:47;19.10;99.90
48007;DHT22;33771;48.180;11.400;2023-07-22T08:12:14;19.20;99.90
48007;DHT22;33771;48.180;11.400;2023-07-22T08:14:40;19.20;99.90
48007;DHT22;33771;48.180;11.400;2023-07-22T08:17:06;19.40;99.90
48007;DHT22;33771;48.180;11.400;2023-07-22T08:19:31;19.50;99.90
48007;DHT22;33771;48.180;11.400;2023-07-22T08:21:57;19.50;99.90
48007;DHT22;33771;48.180;11.400;2023-07-22T08:24:22;19.40;99.90
48007;DHT22;33771;48.180;11.400;2023-07-22T08:26:48;19.50;99.90
48007;DHT22;33771;48.180;11.400;2023-07-22T08:29:13;19.60;99.90
48007;DHT22;33771;48.180;11.400;2023-07-22T08:31:39;19.70;99.90
48007;DHT22;33771;48.180;11.400;2023-07-22T08:34:05;19.70;99.90
48007;DHT22;33771;48.180;11.400;2023-07-22T08:36:31;19.80;99.90
48007;DHT22;33771;48.180;11.400;2023-07-22T08:38:56;19.90;99.90
48007;DHT22;33771;48.180;11.400;2023-07-22T08:41:22;19.90;99.90
48007;DHT22;33771;48.180;11.400;2023-07-22T08:43:51;20.00;99.90
48007;DHT22;33771;48.180;11.400;2023-07-22T08:46:21;20.10;99.90
48007;DHT22;33771;48.180;11.400;2023-07-22T08:48:49;20.20;99.90
48007;DHT22;33771;48.180;11.400;2023-07-22T08:51:18;20.20;99.90
48007;DHT22;33771;48.180;11.400;2023-07-22T08:53:45;20.30;99.90
48007;DHT22;33771;48.180;11.400;2023-07-22T08:56:11;20.50;99.90
48007;DHT22;33771;48.180;11.400;2023-07-22T08:58:37;20.50;99.90
48007;DHT22;33771;48.180;11.400;2023-07-22T09:01:05;20.50;99.90
48007;DHT22;33771;48.180;11.400;2023-07-22T09:03:32;20.60;99.90
48007;DHT22;33771;48.180;11.400;2023-07-22T09:05:58;20.50;99.90
48007;DHT22;33771;48.180;11.400;2023-07-22T09:08:23;20.60;99.90
48007;DHT22;33771;48.180;11.400;2023-07-22T09:10:49;20.60;99.90
48007;DHT22;33771;48.180;11.400;2023-07-22T09:13:15;20.60;99.90
48007;DHT22;33771;48.180;11.400;2023-07-22T09:15:41;20.80;99.90
48007;DHT22;33771;48.180;11.400;2023-07-22T09:18:07;20.80;99.90
48007;DHT22;33771;48.180;11.400;2023-07-22T09:20:33;21.00;99.90
48007;DHT22;33771;48.180;11.400;2023-07-22T09:23:00;21.10;99.90
48007;DHT22;33771;48.180;11.400;2023-07-22T09:25:27;21.10;99.90
48007;DHT22;33771;48.180;11.400;2023-07-22T09:27:54;21.30;99.90
48007;DHT22;33771;48.180;11.400;2023-07-22T09:30:29;21.30;99.90
48007;DHT22;33771;48.180;11.400;2023-07-22T09:32:57;21.50;99.90
48007;DHT22;33771;48.180;11.400;2023-07-22T09:35:28;21.70;99.90
48007;DHT22;33771;48.180;11.400;2023-07-22T09:37:54;21.80;99.90
48007;DHT22;33771;48.180;11.400;2023-07-22T09:40:25;22.00;99.90
48007;DHT22;33771;48.180;11.400;2023-07-22T09:42:55;22.20;99.90
48007;DHT22;33771;48.180;11.400;2023-07-22T09:45:25;22.40;99.90
48007;DHT22;33771;48.180;11.400;2023-07-22T09:47:54;22.60;99.90
48007;DHT22;33771;48.180;11.400;2023-07-22T09:50:23;22.80;99.90
48007;DHT22;33771;48.180;11.400;2023-07-22T09:52:51;23.00;99.90
48007;DHT22;33771;48.180;11.400;2023-07-22T09:55:22;23.10;99.90
48007;DHT22;33771;48.180;11.400;2023-07-22T09:57:50;23.30;99.90
48007;DHT22;33771;48.180;11.400;2023-07-22T10:00:17;23.50;99.90
48007;DHT22;33771;48.180;11.400;2023-07-22T10:02:45;23.70;99.90
48007;DHT22;33771;48.180;11.400;2023-07-22T10:05:15;23.90;99.90
48007;DHT22;33771;48.180;11.400;2023-07-22T10:07:47;24.10;99.90
48007;DHT22;33771;48.180;11.400;2023-07-22T10:10:16;24.30;99.90
48007;DHT22;33771;48.180;11.400;2023-07-22T10:12:43;24.60;99.90
48007;DHT22;33771;48.180;11.400;2023-07-22T10:15:10;24.70;99.90
48007;DHT22;33771;48.180;11.400;2023-07-22T10:17:36;24.70;99.90
48007;DHT22;33771;48.180;11.400;2023-07-22T10:20:02;25.00;99.90
48007;DHT22;33771;48.180;11.400;2023-07-22T10:22:37;25.00;99.90
48007;DHT22;33771;48.180;11.400;2023-07-22T10:25:06;24.70;99.90
48007;DHT22;33771;48.180;11.400;2023-07-22T10:27:34;24.60;99.90
48007;DHT22;33771;48.180;11.400;2023-07-22T10:30:00;24.50;99.90
48007;DHT22;33771;48.180;11.400;2023-07-22T10:32:35;24.30;99.90
48007;DHT22;33771;48.180;11.400;2023-07-22T10:35:02;24.00;99.90
48007;DHT22;33771;48.180;11.400;2023-07-22T10:37:31;23.70;99.90
48007;DHT22;33771;48.180;11.400;2023-07-22T10:40:16;23.60;99.90
48007;DHT22;33771;48.180;11.400;2023-07-22T10:45:29;23.50;99.90
48007;DHT22;33771;48.180;11.400;2023-07-22T10:50:49;24.00;99.90
48007;DHT22;33771;48.180;11.400;2023-07-22T10:58:55;24.90;99.90
48007;DHT22;33771;48.180;11.400;2023-07-22T11:01:33;25.20;99.90
48007;DHT22;33771;48.180;11.400;2023-07-22T11:11:57;25.80;99.90
48007;DHT22;33771;48.180;11.400;2023-07-22T11:14:25;26.00;99.90
48007;DHT22;33771;48.180;11.400;2023-07-22T11:16:51;26.20;99.90
48007;DHT22;33771;48.180;11.400;2023-07-22T11:19:18;26.60;99.90
48007;DHT22;33771;48.180;11.400;2023-07-22T11:21:45;26.60;98.20
48007;DHT22;33771;48.180;11.400;2023-07-22T11:24:11;26.50;98.50
48007;DHT22;33771;48.180;11.400;2023-07-22T11:26:38;26.40;99.90
48007;DHT22;33771;48.180;11.400;2023-07-22T11:29:05;26.40;99.10
48007;DHT22;33771;48.180;11.400;2023-07-22T11:31:39;26.30;98.20
48007;DHT22;33771;48.180;11.400;2023-07-22T11:34:09;26.30;98.90
48007;DHT22;33771;48.180;11.400;2023-07-22T11:36:34;26.30;99.40
48007;DHT22;33771;48.180;11.400;2023-07-22T11:39:06;26.60;99.20
48007;DHT22;33771;48.180;11.400;2023-07-22T11:41:32;26.70;97.30
48007;DHT22;33771;48.180;11.400;2023-07-22T11:44:02;26.40;98.40
48007;DHT22;33771;48.180;11.400;2023-07-22T11:46:28;26.20;97.50
48007;DHT22;33771;48.180;11.400;2023-07-22T11:48:54;26.20;98.10
48007;DHT22;33771;48.180;11.400;2023-07-22T11:51:22;26.50;98.10
48007;DHT22;33771;48.180;11.400;2023-07-22T11:53:49;26.80;97.00
48007;DHT22;33771;48.180;11.400;2023-07-22T11:56:26;27.00;96.10
48007;DHT22;33771;48.180;11.400;2023-07-22T11:58:54;27.00;96.50
48007;DHT22;33771;48.180;11.400;2023-07-22T12:01:20;27.20;94.80
48007;DHT22;33771;48.180;11.400;2023-07-22T12:03:46;27.30;95.90
48007;DHT22;33771;48.180;11.400;2023-07-22T12:06:12;27.50;95.50
48007;DHT22;33771;48.180;11.400;2023-07-22T12:08:46;27.70;94.40
48007;DHT22;33771;48.180;11.400;2023-07-22T12:11:23;27.70;93.20
48007;DHT22;33771;48.180;11.400;2023-07-22T12:14:08;27.80;93.60
48007;DHT22;33771;48.180;11.400;2023-07-22T12:16:36;27.90;94.50
48007;DHT22;33771;48.180;11.400;2023-07-22T12:19:05;27.70;93.70
48007;DHT22;33771;48.180;11.400;2023-07-22T12:21:31;27.70;94.00
48007;DHT22;33771;48.180;11.400;2023-07-22T12:23:57;27.80;93.60
48007;DHT22;33771;48.180;11.400;2023-07-22T12:26:23;27.80;93.00
48007;DHT22;33771;48.180;11.400;2023-07-22T12:28:48;28.00;93.00
48007;DHT22;33771;48.180;11.400;2023-07-22T12:31:14;28.00;92.80
48007;DHT22;33771;48.180;11.400;2023-07-22T12:33:39;28.10;91.60
48007;DHT22;33771;48.180;11.400;2023-07-22T12:36:05;28.20;91.10
48007;DHT22;33771;48.180;11.400;2023-07-22T12:38:31;28.10;90.80
48007;DHT22;33771;48.180;11.400;2023-07-22T12:40:57;28.20;91.40
48007;DHT22;33771;48.180;11.400;2023-07-22T12:43:22;28.50;92.10
48007;DHT22;33771;48.180;11.400;2023-07-22T12:45:48;28.60;91.10
48007;DHT22;33771;48.180;11.400;2023-07-22T12:48:13;28.70;90.40
48007;DHT22;33771;48.180;11.400;2023-07-22T12:50:39;28.70;90.30
48007;DHT22;33771;48.180;11.400;2023-07-22T12:53:05;28.60;90.10
48007;DHT22;33771;48.180;11.400;2023-07-22T12:55:30;28.50;89.30
48007;DHT22;33771;48.180;11.400;2023-07-22T12:57:56;28.50;89.50
48007;DHT22;33771;48.180;11.400;2023-07-22T13:00:21;28.60;88.40
48007;DHT22;33771;48.180;11.400;2023-07-22T13:02:47;28.80;87.90
48007;DHT22;33771;48.180;11.400;2023-07-22T13:05:13;28.80;86.40
48007;DHT22;33771;48.180;11.400;2023-07-22T13:07:39;28.70;85.60
48007;DHT22;33771;48.180;11.400;2023-07-22T13:10:05;28.60;84.30
48007;DHT22;33771;48.180;11.400;2023-07-22T13:12:36;28.40;86.90
48007;DHT22;33771;48.180;11.400;2023-07-22T13:15:02;28.30;87.00
48007;DHT22;33771;48.180;11.400;2023-07-22T13:17:28;28.20;87.10
48007;DHT22;33771;48.180;11.400;2023-07-22T13:19:53;28.10;86.70
48007;DHT22;33771;48.180;11.400;2023-07-22T13:22:19;28.10;87.80
48007;DHT22;33771;48.180;11.400;2023-07-22T13:24:44;28.10;87.10
48007;DHT22;33771;48.180;11.400;2023-07-22T13:27:10;28.10;84.80
48007;DHT22;33771;48.180;11.400;2023-07-22T13:29:35;28.20;85.60
48007;DHT22;33771;48.180;11.400;2023-07-22T13:32:01;28.20;84.20
48007;DHT22;33771;48.180;11.400;2023-07-22T13:34:26;28.20;85.30
48007;DHT22;33771;48.180;11.400;2023-07-22T13:36:52;27.90;84.50
48007;DHT22;33771;48.180;11.400;2023-07-22T13:39:17;27.70;86.90
48007;DHT22;33771;48.180;11.400;2023-07-22T13:41:43;27.30;85.40
48007;DHT22;33771;48.180;11.400;2023-07-22T13:44:09;27.30;86.60
48007;DHT22;33771;48.180;11.400;2023-07-22T13:46:34;27.10;88.90
48007;DHT22;33771;48.180;11.400;2023-07-22T13:49:00;26.90;83.20
48007;DHT22;33771;48.180;11.400;2023-07-22T13:51:25;26.80;84.60
48007;DHT22;33771;48.180;11.400;2023-07-22T13:53:51;26.60;83.40
48007;DHT22;33771;48.180;11.400;2023-07-22T13:56:20;26.30;86.40
48007;DHT22;33771;48.180;11.400;2023-07-22T13:58:45;26.20;89.70
48007;DHT22;33771;48.180;11.400;2023-07-22T14:01:11;26.20;85.70
48007;DHT22;33771;48.180;11.400;2023-07-22T14:03:36;26.10;90.20
48007;DHT22;33771;48.180;11.400;2023-07-22T14:06:02;26.10;89.90
48007;DHT22;33771;48.180;11.400;2023-07-22T14:08:28;26.00;89.10
48007;DHT22;33771;48.180;11.400;2023-07-22T14:10:54;25.80;88.40
48007;DHT22;33771;48.180;11.400;2023-07-22T14:13:19;25.80;90.30
48007;DHT22;33771;48.180;11.400;2023-07-22T14:15:45;25.80;89.80
48007;DHT22;33771;48.180;11.400;2023-07-22T14:18:10;25.70;89.60
48007;DHT22;33771;48.180;11.400;2023-07-22T14:20:36;25.60;87.20
48007;DHT22;33771;48.180;11.400;2023-07-22T14:23:02;25.50;90.60
48007;DHT22;33771;48.180;11.400;2023-07-22T14:25:29;25.40;90.80
48007;DHT22;33771;48.180;11.400;2023-07-22T14:27:54;25.30;87.10
48007;DHT22;33771;48.180;11.400;2023-07-22T14:30:20;25.30;88.60
48007;DHT22;33771;48.180;11.400;2023-07-22T14:32:45;25.40;89.50
48007;DHT22;33771;48.180;11.400;2023-07-22T14:35:11;25.40;90.00
48007;DHT22;33771;48.180;11.400;2023-07-22T14:37:36;25.40;90.00
48007;DHT22;33771;48.180;11.400;2023-07-22T14:40:03;25.50;90.10
48007;DHT22;33771;48.180;11.400;2023-07-22T14:42:30;25.40;87.80
48007;DHT22;33771;48.180;11.400;2023-07-22T14:44:55;25.30;88.30
48007;DHT22;33771;48.180;11.400;2023-07-22T14:47:21;25.20;89.40
48007;DHT22;33771;48.180;11.400;2023-07-22T14:49:46;25.20;89.50
48007;DHT22;33771;48.180;11.400;2023-07-22T14:52:12;25.10;87.60
48007;DHT22;33771;48.180;11.400;2023-07-22T14:54:37;25.10;88.00
48007;DHT22;33771;48.180;11.400;2023-07-22T14:57:04;25.00;89.50
48007;DHT22;33771;48.180;11.400;2023-07-22T14:59:29;25.00;90.10
48007;DHT22;33771;48.180;11.400;2023-07-22T15:01:55;25.00;90.10
48007;DHT22;33771;48.180;11.400;2023-07-22T15:04:20;24.90;90.00
48007;DHT22;33771;48.180;11.400;2023-07-22T15:06:46;24.80;91.10
48007;DHT22;33771;48.180;11.400;2023-07-22T15:09:11;24.70;90.90
48007;DHT22;33771;48.180;11.400;2023-07-22T15:11:37;24.70;91.30
48007;DHT22;33771;48.180;11.400;2023-07-22T15:14:03;24.80;91.70
48007;DHT22;33771;48.180;11.400;2023-07-22T15:16:30;24.80;90.40
48007;DHT22;33771;48.180;11.400;2023-07-22T15:18:56;24.80;90.40
48007;DHT22;33771;48.180;11.400;2023-07-22T15:21:21;24.80;90.80
48007;DHT22;33771;48.180;11.400;2023-07-22T15:23:47;24.80;91.90
48007;DHT22;33771;48.180;11.400;2023-07-22T15:26:12;24.90;89.80
48007;DHT22;33771;48.180;11.400;2023-07-22T15:28:38;24.90;90.30